Time;durP1;ratioP1;P1;durP2;ratioP2;P2;SDS_P1;SDS_P2;PMS_P1;PMS_P2;Temp;Humidity;BMP_temperature;BMP_pressure;BME280_temperature;BME280_humidity;BME280_pressure;Samples;Min_cycle;Max_cycle;Signal;HPM_P1;HPM_P2
2023/03/21 00:00:03;;;;;;;6.93;3.63;;;;;;;8.44;100.00;100926.44;696168;28;1229;-62
2023/03/21 00:00:25;;;;;;;8.55;3.88;;;;;;;8.42;100.00;100926.44;696436;28;1971;-62
2023/03/21 00:00:46;;;;;;;9.13;3.90;;;;;;;8.42;100.00;100925.53;696011;28;4364;-62
2023/03/21 00:01:10;;;;;;;8.15;3.75;;;;;;;8.49;100.00;100930.84;697115;28;833;-62
2023/03/21 00:01:31;;;;;;;8.07;3.67;;;;;;;8.46;100.00;100922.13;697176;28;1151;-62
2023/03/21 00:01:52;;;;;;;6.70;3.47;;;;;;;8.43;100.00;100922.97;696027;28;956;-62
2023/03/21 00:02:12;;;;;;;7.32;3.45;;;;;;;8.44;100.00;100926.44;697317;28;1011;-62
2023/03/21 00:02:33;;;;;;;7.20;3.80;;;;;;;8.41;100.00;100924.69;693609;28;1264;-62
2023/03/21 00:02:53;;;;;;;7.53;3.50;;;;;;;8.41;100.00;100919.47;694176;28;841;-62
2023/03/21 00:03:15;;;;;;;7.57;3.40;;;;;;;8.45;100.00;100926.47;694415;28;1361;-63
2023/03/21 00:03:35;;;;;;;7.22;3.50;;;;;;;8.45;100.00;100926.47;694375;28;979;-62
2023/03/21 00:03:55;;;;;;;7.07;3.70;;;;;;;8.43;100.00;100912.56;699116;28;4356;-62
2023/03/21 00:04:16;;;;;;;6.30;3.58;;;;;;;8.43;100.00;100922.09;699564;28;924;-62
2023/03/21 00:04:36;;;;;;;8.17;3.77;;;;;;;8.40;100.00;100917.72;702928;28;931;-62
2023/03/21 00:04:57;;;;;;;8.40;3.70;;;;;;;8.41;100.00;100922.06;700103;28;1511;-62
2023/03/21 00:05:19;;;;;;;6.73;3.50;;;;;;;8.40;100.00;100919.47;695715;28;2130;-62
2023/03/21 00:05:41;;;;;;;7.40;3.75;;;;;;;8.39;100.00;100922.91;699190;28;1130;-62
2023/03/21 00:06:07;;;;;;;7.40;3.60;;;;;;;8.37;100.00;100917.69;699783;28;1299;-62
2023/03/21 00:06:27;;;;;;;7.88;3.65;;;;;;;8.36;100.00;100915.94;699217;28;1027;-62
2023/03/21 00:06:48;;;;;;;8.90;3.90;;;;;;;8.35;100.00;100915.09;698929;28;4480;-62
2023/03/21 00:07:08;;;;;;;8.52;3.70;;;;;;;8.36;100.00;100915.94;699298;28;974;-61
2023/03/21 00:07:29;;;;;;;7.87;3.90;;;;;;;8.35;100.00;100916.81;698759;28;1095;-61
2023/03/21 00:07:49;;;;;;;8.38;4.28;;;;;;;8.37;100.00;100917.69;699504;28;975;-62
2023/03/21 00:08:10;;;;;;;8.27;3.77;;;;;;;8.39;100.00;100918.59;699288;28;956;-62
2023/03/21 00:08:30;;;;;;;8.65;3.70;;;;;;;8.44;100.00;100918.63;698755;28;885;-62
2023/03/21 00:08:51;;;;;;;6.47;3.50;;;;;;;8.56;100.00;100917.91;698695;28;1055;-61
2023/03/21 00:09:11;;;;;;;8.43;3.67;;;;;;;8.59;100.00;100917.91;698695;28;855;-62
2023/03/21 00:09:32;;;;;;;8.53;3.67;;;;;;;8.57;100.00;100919.63;698431;28;1146;-61
2023/03/21 00:09:52;;;;;;;8.68;3.58;;;;;;;8.57;100.00;100920.50;701031;28;4496;-62
2023/03/21 00:10:13;;;;;;;7.47;3.65;;;;;;;8.55;100.00;100910.94;701684;28;912;-61
2023/03/21 00:10:33;;;;;;;7.53;3.80;;;;;;;8.51;100.00;100916.13;702166;28;1134;-61
2023/03/21 00:11:02;;;;;;;8.23;3.40;;;;;;;8.50;100.00;100914.38;700641;28;1194;-62
2023/03/21 00:11:22;;;;;;;8.38;3.92;;;;;;;8.46;100.00;100907.38;699043;28;1008;-61
2023/03/21 00:11:42;;;;;;;6.67;3.33;;;;;;;8.47;100.00;100913.47;701282;28;934;-61
2023/03/21 00:12:08;;;;;;;6.80;3.47;;;;;;;8.47;100.00;100913.47;699078;28;1037;-61
2023/03/21 00:12:31;;;;;;;9.52;3.90;;;;;;;8.43;100.00;100912.56;699480;28;880;-61
2023/03/21 00:12:57;;;;;;;7.97;3.83;;;;;;;8.43;100.00;100907.34;696750;28;4329;-61
2023/03/21 00:13:17;;;;;;;7.75;3.80;;;;;;;8.41;100.00;100911.66;696879;28;845;-62
2023/03/21 00:13:41;;;;;;;6.87;3.40;;;;;;;8.41;100.00;100911.66;697158;28;935;-61
2023/03/21 00:14:01;;;;;;;6.40;3.30;;;;;;;8.40;100.00;100915.09;696671;28;1252;-61
2023/03/21 00:14:24;;;;;;;7.20;3.50;;;;;;;8.39;100.00;100905.56;697727;28;1028;-61
2023/03/21 00:14:45;;;;;;;7.70;3.50;;;;;;;8.41;100.00;100916.84;699276;28;937;-61
2023/03/21 00:15:07;;;;;;;7.65;3.55;;;;;;;8.41;100.00;100908.19;700569;28;916;-61
2023/03/21 00:15:28;;;;;;;8.25;3.97;;;;;;;8.40;100.00;100912.50;700044;28;1287;-61
2023/03/21 00:15:53;;;;;;;9.80;3.65;;;;;;;8.39;100.00;100910.78;700630;28;4275;-61
2023/03/21 00:16:16;;;;;;;8.63;3.60;;;;;;;8.38;100.00;100909.03;698860;28;915;-61
2023/03/21 00:16:37;;;;;;;9.13;3.80;;;;;;;8.40;100.00;100912.50;701052;28;844;-62
2023/03/21 00:16:57;;;;;;;8.02;3.42;;;;;;;8.44;100.00;100908.19;703222;28;924;-62
2023/03/21 00:17:21;;;;;;;8.27;3.47;;;;;;;8.43;100.00;100906.44;700245;28;1220;-61
2023/03/21 00:17:43;;;;;;;8.57;3.60;;;;;;;8.43;100.00;100906.44;700403;28;1171;-61
2023/03/21 00:18:10;;;;;;;8.40;3.63;;;;;;;8.44;100.00;100911.66;699901;28;959;-61
2023/03/21 00:18:30;;;;;;;8.98;3.97;;;;;;;8.42;100.00;100905.59;699909;28;1034;-63
2023/03/21 00:18:53;;;;;;;7.78;3.70;;;;;;;8.42;100.00;100908.19;699765;28;4375;-63
2023/03/21 00:19:14;;;;;;;10.85;3.85;;;;;;;8.43;100.00;100901.25;698993;28;1214;-63
2023/03/21 00:19:37;;;;;;;7.47;3.40;;;;;;;8.46;100.00;100912.59;699847;28;968;-63
2023/03/21 00:19:59;;;;;;;7.78;3.70;;;;;;;8.45;100.00;100908.25;703153;28;975;-63
2023/03/21 00:20:19;;;;;;;7.50;3.80;;;;;;;8.43;100.00;100911.66;700677;28;3454;-62
2023/03/21 00:20:40;;;;;;;7.10;3.77;;;;;;;8.43;100.00;100907.34;699305;28;1917;-63
2023/03/21 00:21:04;;;;;;;8.18;3.60;;;;;;;8.43;100.00;100903.84;699169;28;1071;-63
2023/03/21 00:21:31;;;;;;;7.55;3.40;;;;;;;8.43;100.00;100906.44;699188;28;1100;-62
2023/03/21 00:21:51;;;;;;;8.18;3.70;;;;;;;8.42;100.00;100900.38;696933;28;4414;-62
2023/03/21 00:22:12;;;;;;;7.55;3.67;;;;;;;8.42;100.00;100905.59;697665;28;1050;-63
2023/03/21 00:22:35;;;;;;;6.63;3.77;;;;;;;8.48;100.00;100910.88;698075;28;1150;-62
2023/03/21 00:22:56;;;;;;;8.13;3.70;;;;;;;8.46;100.00;100907.38;700203;28;1071;-63
2023/03/21 00:23:16;;;;;;;8.73;3.83;;;;;;;8.45;100.00;100905.63;701865;28;1300;-63
2023/03/21 00:23:36;;;;;;;8.73;3.87;;;;;;;8.45;100.00;100908.25;698145;28;1083;-62
2023/03/21 00:23:59;;;;;;;8.00;3.40;;;;;;;8.46;100.00;100902.19;698939;28;1170;-63
2023/03/21 00:24:21;;;;;;;8.18;3.50;;;;;;;8.46;100.00;100902.19;698678;28;963;-62
2023/03/21 00:24:42;;;;;;;8.18;3.80;;;;;;;8.45;100.00;100903.03;695198;28;4426;-62
2023/03/21 00:25:02;;;;;;;9.43;3.87;;;;;;;8.43;100.00;100901.25;695885;28;859;-62
2023/03/21 00:25:22;;;;;;;7.78;3.65;;;;;;;8.42;100.00;100897.78;693555;28;1185;-63
2023/03/21 00:25:43;;;;;;;6.20;3.37;;;;;;;8.45;100.00;100905.63;693837;28;944;-62
2023/03/21 00:26:03;;;;;;;7.07;3.60;;;;;;;8.43;100.00;100903.84;694736;28;805;-62
2023/03/21 00:26:24;;;;;;;7.87;3.67;;;;;;;8.42;100.00;100897.78;694623;28;913;-63
2023/03/21 00:26:45;;;;;;;7.72;3.55;;;;;;;8.42;100.00;100900.38;700436;28;919;-63
2023/03/21 00:27:06;;;;;;;9.10;3.60;;;;;;;8.41;100.00;100896.03;698662;28;1258;-63
2023/03/21 00:27:26;;;;;;;7.80;3.47;;;;;;;8.40;100.00;100896.88;698612;28;1153;-62
2023/03/21 00:27:49;;;;;;;8.88;3.90;;;;;;;8.41;100.00;100902.97;697460;28;4558;-62
2023/03/21 00:28:09;;;;;;;8.00;3.80;;;;;;;8.39;100.00;100897.75;696454;28;1124;-63
2023/03/21 00:28:29;;;;;;;7.63;3.77;;;;;;;8.39;100.00;100899.47;695639;28;918;-62
2023/03/21 00:28:50;;;;;;;8.48;3.75;;;;;;;8.39;100.00;100897.75;696378;28;1256;-62
2023/03/21 00:29:10;;;;;;;8.90;3.93;;;;;;;8.39;100.00;100902.06;696012;28;929;-63
2023/03/21 00:29:30;;;;;;;7.30;3.80;;;;;;;8.40;100.00;100896.88;698365;28;971;-62
2023/03/21 00:29:51;;;;;;;7.13;3.90;;;;;;;8.41;100.00;100898.63;695252;28;1145;-62
2023/03/21 00:30:12;;;;;;;7.90;3.60;;;;;;;8.39;100.00;100904.69;695403;28;785;-63
2023/03/21 00:30:32;;;;;;;7.68;3.58;;;;;;;8.38;100.00;100897.72;695781;28;1154;-63
2023/03/21 00:30:59;;;;;;;7.67;3.80;;;;;;;8.39;100.00;100897.75;694942;28;4370;-62
2023/03/21 00:31:19;;;;;;;10.57;4.22;;;;;;;8.37;100.00;100901.19;695988;28;1054;-62
2023/03/21 00:31:40;;;;;;;9.33;4.00;;;;;;;8.37;100.00;100896.00;698431;28;970;-62
2023/03/21 00:32:00;;;;;;;9.32;3.83;;;;;;;8.36;100.00;100889.88;700506;28;891;-62
2023/03/21 00:32:21;;;;;;;8.57;3.70;;;;;;;8.34;100.00;100892.47;702757;28;1118;-62
2023/03/21 00:32:41;;;;;;;8.38;3.85;;;;;;;8.33;100.00;100889.88;703500;28;828;-63
2023/03/21 00:33:02;;;;;;;8.87;3.90;;;;;;;8.34;100.00;100892.47;702790;28;1061;-63
2023/03/21 00:33:22;;;;;;;7.63;3.70;;;;;;;8.47;100.00;100901.31;702602;28;896;-62
2023/03/21 00:33:43;;;;;;;7.93;3.87;;;;;;;8.56;100.00;100891.84;702033;28;4332;-62
2023/03/21 00:34:04;;;;;;;8.32;3.70;;;;;;;8.54;100.00;100897.00;703284;28;1288;-63
2023/03/21 00:34:24;;;;;;;7.40;3.67;;;;;;;8.53;100.00;100897.88;702817;28;888;-63
2023/03/21 00:34:46;;;;;;;7.30;3.83;;;;;;;8.50;100.00;100893.53;698884;28;1266;-62
2023/03/21 00:35:09;;;;;;;7.60;3.53;;;;;;;8.47;100.00;100893.50;698760;28;920;-62
2023/03/21 00:35:29;;;;;;;7.30;3.80;;;;;;;8.47;100.00;100890.91;699334;28;1287;-62
2023/03/21 00:35:51;;;;;;;8.57;3.70;;;;;;;8.45;100.00;100890.00;695896;28;1270;-63
2023/03/21 00:36:11;;;;;;;8.25;3.70;;;;;;;8.45;100.00;100899.56;694343;28;872;-63
2023/03/21 00:36:32;;;;;;;7.78;3.50;;;;;;;8.42;100.00;100887.34;694682;28;1143;-62
2023/03/21 00:36:52;;;;;;;8.13;4.00;;;;;;;8.42;100.00;100892.56;696341;28;5227;-62
2023/03/21 00:37:15;;;;;;;8.00;3.90;;;;;;;8.43;100.00;100886.50;696596;28;1368;-62
2023/03/21 00:37:35;;;;;;;7.90;3.75;;;;;;;8.42;100.00;100889.97;696860;28;1616;-63
2023/03/21 00:37:56;;;;;;;8.57;3.63;;;;;;;8.40;100.00;100886.44;696392;28;920;-62
2023/03/21 00:38:17;;;;;;;7.38;3.55;;;;;;;8.38;100.00;100888.19;695675;28;1252;-62
2023/03/21 00:38:38;;;;;;;7.47;3.55;;;;;;;8.38;100.00;100882.97;695917;28;867;-63
2023/03/21 00:39:00;;;;;;;8.18;3.67;;;;;;;8.39;100.00;100889.94;695249;28;5338;-63
2023/03/21 00:39:21;;;;;;;7.80;3.50;;;;;;;8.39;100.00;100889.94;693514;28;1508;-62
2023/03/21 00:39:43;;;;;;;8.18;3.78;;;;;;;8.38;100.00;100893.41;693273;28;4561;-61
2023/03/21 00:40:13;;;;;;;7.53;3.53;;;;;;;8.35;100.00;100883.81;698316;28;975;-63
2023/03/21 00:40:34;;;;;;;8.57;3.92;;;;;;;8.40;100.00;100891.66;694605;28;1918;-63
2023/03/21 00:40:55;;;;;;;7.00;3.63;;;;;;;8.43;100.00;100883.91;695274;28;896;-62
2023/03/21 00:41:18;;;;;;;8.03;3.83;;;;;;;8.41;100.00;100885.59;693489;28;900;-62
2023/03/21 00:41:38;;;;;;;7.85;3.50;;;;;;;8.39;100.00;100889.94;693805;28;2116;-62
2023/03/21 00:41:59;;;;;;;7.10;3.78;;;;;;;8.43;100.00;100886.50;691224;28;1478;-62
2023/03/21 00:42:19;;;;;;;7.43;3.53;;;;;;;8.42;100.00;100884.75;689712;28;1148;-62
2023/03/21 00:42:40;;;;;;;7.30;3.40;;;;;;;8.40;100.00;100886.44;693446;28;4290;-63
2023/03/21 00:43:00;;;;;;;9.63;3.70;;;;;;;8.37;100.00;100886.44;694082;28;849;-62
2023/03/21 00:43:28;;;;;;;9.93;3.63;;;;;;;8.35;100.00;100890.78;694447;28;1201;-62
2023/03/21 00:43:50;;;;;;;7.68;3.80;;;;;;;8.39;100.00;100887.34;697266;28;1352;-63
2023/03/21 00:44:14;;;;;;;8.82;3.70;;;;;;;8.39;100.00;100886.44;697102;28;971;-63
2023/03/21 00:44:35;;;;;;;7.50;3.78;;;;;;;8.37;100.00;100883.81;694778;28;809;-63
2023/03/21 00:44:56;;;;;;;7.50;3.90;;;;;;;8.38;100.00;100888.19;695426;28;1387;-63
2023/03/21 00:45:18;;;;;;;9.07;4.03;;;;;;;8.40;100.00;100880.38;696331;28;1314;-62
2023/03/21 00:45:38;;;;;;;8.90;3.97;;;;;;;8.39;100.00;100884.72;691477;28;4633;-63
2023/03/21 00:45:59;;;;;;;9.80;4.00;;;;;;;8.39;100.00;100879.53;692429;28;912;-62
2023/03/21 00:46:19;;;;;;;9.30;3.63;;;;;;;8.40;100.00;100890.81;693494;28;915;-63
2023/03/21 00:46:40;;;;;;;8.90;3.97;;;;;;;8.38;100.00;100884.69;692581;28;976;-63
2023/03/21 00:47:02;;;;;;;10.80;4.43;;;;;;;8.38;100.00;100880.38;693278;28;1329;-62
2023/03/21 00:47:22;;;;;;;9.50;4.03;;;;;;;8.40;100.00;100891.66;695727;28;952;-63
2023/03/21 00:47:44;;;;;;;8.05;3.90;;;;;;;8.39;100.00;100889.94;699107;28;1419;-62
2023/03/21 00:48:05;;;;;;;7.35;3.85;;;;;;;8.40;100.00;100890.81;697846;28;1419;-63
2023/03/21 00:48:26;;;;;;;8.47;3.80;;;;;;;8.42;100.00;100879.53;698771;28;1185;-63
2023/03/21 00:48:46;;;;;;;9.70;4.00;;;;;;;8.42;100.00;100887.34;694443;28;4373;-63
2023/03/21 00:49:07;;;;;;;9.55;4.20;;;;;;;8.44;100.00;100882.16;693122;28;1206;-63
2023/03/21 00:49:32;;;;;;;9.70;4.30;;;;;;;8.45;100.00;100883.94;692967;28;1102;-63
2023/03/21 00:49:52;;;;;;;8.02;4.05;;;;;;;8.51;100.00;100886.56;693622;28;1347;-63
2023/03/21 00:50:13;;;;;;;9.90;4.28;;;;;;;8.52;100.00;100886.56;692057;28;1455;-63
2023/03/21 00:50:33;;;;;;;8.50;4.10;;;;;;;8.55;100.00;100887.47;691289;28;940;-63
2023/03/21 00:50:56;;;;;;;8.30;4.00;;;;;;;8.52;100.00;100880.50;692880;28;1254;-62
2023/03/21 00:51:25;;;;;;;7.90;3.70;;;;;;;8.50;100.00;100883.09;694646;28;1233;-63
2023/03/21 00:51:50;;;;;;;7.97;4.10;;;;;;;8.56;100.00;100881.41;694698;28;4447;-62
2023/03/21 00:52:10;;;;;;;7.90;4.28;;;;;;;8.64;100.00;100882.31;697491;28;1014;-63
2023/03/21 00:52:31;;;;;;;7.90;4.30;;;;;;;8.75;100.00;100875.47;699172;28;950;-63
2023/03/21 00:52:51;;;;;;;9.55;4.43;;;;;;;8.78;100.00;100879.81;698340;28;799;-63
2023/03/21 00:53:13;;;;;;;8.20;4.03;;;;;;;8.72;100.00;100883.22;695203;28;1118;-63
2023/03/21 00:53:33;;;;;;;8.55;4.00;;;;;;;8.69;100.00;100878.00;695289;28;2038;-62
2023/03/21 00:53:55;;;;;;;8.40;4.10;;;;;;;8.66;100.00;100878.00;694022;28;1327;-63
2023/03/21 00:54:16;;;;;;;9.55;3.97;;;;;;;8.63;100.00;100875.38;693746;28;1757;-62
2023/03/21 00:54:37;;;;;;;8.52;4.10;;;;;;;8.59;100.00;100871.88;694466;28;4380;-62
2023/03/21 00:54:57;;;;;;;8.90;4.13;;;;;;;8.56;100.00;100879.66;694033;28;1318;-63
2023/03/21 00:55:18;;;;;;;9.53;4.30;;;;;;;8.54;100.00;100877.91;693461;28;1211;-63
2023/03/21 00:55:39;;;;;;;9.45;4.30;;;;;;;8.52;100.00;100877.91;692181;28;916;-62
2023/03/21 00:55:59;;;;;;;9.10;4.35;;;;;;;8.52;100.00;100876.16;696627;28;887;-62
2023/03/21 00:56:20;;;;;;;7.27;4.20;;;;;;;8.50;100.00;100877.00;695831;28;1077;-63
2023/03/21 00:56:42;;;;;;;7.75;3.78;;;;;;;8.49;100.00;100876.13;693249;28;1337;-62
2023/03/21 00:57:04;;;;;;;8.63;4.07;;;;;;;8.51;100.00;100870.94;693974;28;1471;-63
2023/03/21 00:57:24;;;;;;;7.85;3.92;;;;;;;8.50;100.00;100877.88;691317;28;1059;-62
2023/03/21 00:57:45;;;;;;;7.60;4.00;;;;;;;8.50;100.00;100869.19;692609;28;4627;-62
2023/03/21 00:58:05;;;;;;;8.05;3.85;;;;;;;8.50;100.00;100871.78;692951;28;1059;-63
2023/03/21 00:58:26;;;;;;;7.83;4.00;;;;;;;8.57;100.00;100875.31;693006;28;1515;-62
2023/03/21 00:58:47;;;;;;;7.97;3.88;;;;;;;8.60;100.00;100875.31;693192;28;861;-63
2023/03/21 00:59:10;;;;;;;7.28;3.53;;;;;;;8.69;100.00;100873.69;690369;28;1237;-62
2023/03/21 00:59:30;;;;;;;9.02;3.78;;;;;;;8.74;100.00;100871.09;695137;28;1007;-63
2023/03/21 00:59:50;;;;;;;8.07;3.83;;;;;;;8.81;100.00;100866.78;696185;28;1236;-63
2023/03/21 01:00:13;;;;;;;7.60;4.00;;;;;;;8.80;100.00;100872.88;697063;28;1125;-63
2023/03/21 01:00:35;;;;;;;7.93;4.10;;;;;;;8.75;100.00;100872.84;692910;28;1914;-63
2023/03/21 01:00:57;;;;;;;10.07;4.18;;;;;;;8.68;100.00;100866.72;698765;28;4890;-63
2023/03/21 01:01:18;;;;;;;9.83;4.47;;;;;;;8.64;100.00;100869.28;700740;28;919;-63
2023/03/21 01:01:38;;;;;;;8.32;4.18;;;;;;;8.65;100.00;100876.25;701807;28;1514;-63
2023/03/21 01:02:00;;;;;;;7.63;3.85;;;;;;;8.61;100.00;100869.25;696867;28;1278;-63
2023/03/21 01:02:21;;;;;;;8.10;3.90;;;;;;;8.65;100.00;100865.81;696751;28;963;-63
2023/03/21 01:02:55;;;;;;;9.23;4.22;;;;;;;8.74;100.00;100867.63;697467;28;891;-63
2023/03/21 01:03:16;;;;;;;8.52;4.05;;;;;;;8.76;100.00;100869.34;696772;28;1158;-63
2023/03/21 01:03:41;;;;;;;6.43;3.63;;;;;;;8.74;100.00;100871.09;695013;28;4327;-63
2023/03/21 01:04:06;;;;;;;8.23;3.88;;;;;;;8.77;100.00;100865.91;697447;28;1157;-62
2023/03/21 01:04:27;;;;;;;8.80;3.80;;;;;;;8.73;100.00;100871.09;697337;28;892;-62
2023/03/21 01:04:49;;;;;;;7.80;3.90;;;;;;;8.68;100.00;100868.44;697135;28;761;-63
2023/03/21 01:05:10;;;;;;;7.47;3.90;;;;;;;8.64;100.00;100864.97;697840;28;1309;-63
2023/03/21 01:06:18;;;;;;;8.30;3.95;;;;;;;8.58;100.00;100869.25;694445;28;994;-62
2023/03/21 01:06:39;;;;;;;9.55;4.07;;;;;;;8.58;100.00;100866.66;695167;28;4481;-63
2023/03/21 01:07:00;;;;;;;11.10;4.25;;;;;;;8.57;100.00;100863.19;694968;28;1051;-62
2023/03/21 01:07:20;;;;;;;8.38;3.90;;;;;;;8.57;100.00;100860.56;693718;28;889;-63
2023/03/21 01:07:40;;;;;;;8.13;3.80;;;;;;;8.62;100.00;100866.66;694976;28;1209;-62
2023/03/21 01:08:01;;;;;;;6.57;3.67;;;;;;;8.63;100.00;100862.34;696477;28;935;-62
2023/03/21 01:08:22;;;;;;;6.60;3.67;;;;;;;8.60;100.00;100864.91;695446;28;1428;-62
2023/03/21 01:08:44;;;;;;;8.65;3.90;;;;;;;8.61;100.00;100870.16;696817;28;1046;-62
2023/03/21 01:09:08;;;;;;;8.68;3.92;;;;;;;8.58;100.00;100858.81;695831;28;908;-63
2023/03/21 01:09:30;;;;;;;8.55;3.80;;;;;;;8.61;100.00;100857.13;698347;28;963;-63
2023/03/21 01:09:51;;;;;;;8.85;3.90;;;;;;;8.64;100.00;100864.06;698322;28;4338;-63
2023/03/21 01:10:12;;;;;;;10.18;4.03;;;;;;;8.60;100.00;100857.09;699488;28;880;-63
2023/03/21 01:10:36;;;;;;;8.23;4.10;;;;;;;8.60;100.00;100859.69;697554;28;1239;-63
2023/03/21 01:11:01;;;;;;;7.88;3.83;;;;;;;8.58;100.00;100864.03;699809;28;1042;-62
2023/03/21 01:11:24;;;;;;;8.32;3.85;;;;;;;8.55;100.00;100858.81;699060;28;1187;-62
2023/03/21 01:11:49;;;;;;;8.45;3.90;;;;;;;8.52;100.00;100855.31;698572;28;812;-63
2023/03/21 01:12:09;;;;;;;8.05;3.83;;;;;;;8.49;100.00;100852.69;699713;28;947;-62
2023/03/21 01:12:30;;;;;;;8.18;3.90;;;;;;;8.50;100.00;100862.25;695474;28;1403;-63
2023/03/21 01:12:51;;;;;;;7.77;3.80;;;;;;;8.56;100.00;100853.59;696759;28;4351;-62
2023/03/21 01:13:13;;;;;;;7.32;3.75;;;;;;;8.58;100.00;100859.69;693860;28;1476;-63
2023/03/21 01:13:34;;;;;;;8.15;3.85;;;;;;;8.55;100.00;100859.66;693710;28;1284;-62
2023/03/21 01:13:55;;;;;;;7.53;3.53;;;;;;;8.61;100.00;100864.94;693363;28;979;-63
2023/03/21 01:14:19;;;;;;;8.13;3.80;;;;;;;8.64;100.00;100864.06;690588;28;1254;-63
2023/03/21 01:14:40;;;;;;;7.38;3.70;;;;;;;8.63;100.00;100860.59;692970;28;1271;-62
2023/03/21 01:15:00;;;;;;;8.98;3.88;;;;;;;8.61;100.00;100862.34;692709;28;853;-63
2023/03/21 01:15:20;;;;;;;7.20;3.90;;;;;;;8.58;100.00;100861.44;693494;28;1077;-63
2023/03/21 01:15:50;;;;;;;7.77;3.90;;;;;;;8.55;100.00;100861.41;693023;28;4597;-63
2023/03/21 01:16:10;;;;;;;9.00;3.90;;;;;;;8.54;100.00;100863.13;690368;28;1365;-63
2023/03/21 01:16:31;;;;;;;7.72;3.88;;;;;;;8.54;100.00;100852.72;692237;28;3424;-63
2023/03/21 01:16:52;;;;;;;8.10;4.00;;;;;;;8.55;100.00;100859.66;693614;28;885;-63
2023/03/21 01:17:13;;;;;;;8.65;3.80;;;;;;;8.56;100.00;100857.97;696095;28;951;-63
2023/03/21 01:17:33;;;;;;;8.25;3.83;;;;;;;8.54;100.00;100852.72;693626;28;1010;-62
2023/03/21 01:17:54;;;;;;;8.73;4.03;;;;;;;8.62;100.00;100852.78;695190;28;1322;-63
2023/03/21 01:18:16;;;;;;;7.27;4.00;;;;;;;8.68;100.00;100856.28;695123;28;971;-63
2023/03/21 01:18:39;;;;;;;6.70;3.60;;;;;;;8.76;100.00;100858.06;694619;28;4321;-63
2023/03/21 01:19:00;;;;;;;6.85;3.65;;;;;;;8.73;100.00;100856.31;695545;28;1098;-62
2023/03/21 01:19:25;;;;;;;8.23;3.60;;;;;;;8.77;100.00;100855.47;693517;28;1386;-62
2023/03/21 01:19:45;;;;;;;7.18;3.50;;;;;;;8.81;100.00;100852.00;696736;28;936;-63
2023/03/21 01:20:06;;;;;;;7.17;3.73;;;;;;;8.77;100.00;100855.47;697057;28;1318;-63
2023/03/21 01:20:27;;;;;;;7.88;3.83;;;;;;;8.72;100.00;100857.16;697597;28;1971;-62
2023/03/21 01:20:48;;;;;;;8.17;3.67;;;;;;;8.66;100.00;100857.16;692788;28;1237;-62
2023/03/21 01:21:13;;;;;;;9.27;3.97;;;;;;;8.60;100.00;100862.28;693981;28;1147;-63
2023/03/21 01:21:34;;;;;;;8.68;3.97;;;;;;;8.55;100.00;100853.59;695289;28;1083;-62
2023/03/21 01:21:56;;;;;;;7.88;3.83;;;;;;;8.50;100.00;100851.84;691253;28;4533;-63
2023/03/21 01:22:16;;;;;;;8.05;3.83;;;;;;;8.48;100.00;100850.94;692481;28;988;-63
2023/03/21 01:22:36;;;;;;;8.70;4.00;;;;;;;8.49;100.00;100851.84;696790;28;915;-62
2023/03/21 01:22:57;;;;;;;8.65;3.72;;;;;;;8.48;100.00;100858.75;700247;28;1154;-63
2023/03/21 01:23:17;;;;;;;8.67;3.70;;;;;;;8.47;100.00;100857.03;696421;28;1008;-63
2023/03/21 01:23:40;;;;;;;7.38;3.58;;;;;;;8.46;100.00;100857.88;697172;28;782;-63
2023/03/21 01:24:01;;;;;;;7.70;3.60;;;;;;;8.45;100.00;100852.66;699406;28;1079;-63
2023/03/21 01:24:21;;;;;;;9.18;3.95;;;;;;;8.43;100.00;100851.75;699056;28;927;-62
2023/03/21 01:24:42;;;;;;;8.93;3.88;;;;;;;8.41;100.00;100846.53;698400;28;4299;-62
2023/03/21 01:25:02;;;;;;;8.02;3.92;;;;;;;8.40;100.00;100856.94;699687;28;927;-63
2023/03/21 01:25:23;;;;;;;8.23;3.83;;;;;;;8.42;100.00;100849.97;702141;28;923;-62
2023/03/21 01:25:47;;;;;;;7.30;3.90;;;;;;;8.41;100.00;100861.28;699948;28;1019;-62
2023/03/21 01:26:10;;;;;;;6.88;3.88;;;;;;;8.41;100.00;100859.53;702058;28;1237;-62
2023/03/21 01:26:31;;;;;;;6.75;3.55;;;;;;;8.39;100.00;100853.47;700795;28;1172;-62
2023/03/21 01:26:51;;;;;;;8.43;3.80;;;;;;;8.39;100.00;100855.19;703540;28;789;-63
2023/03/21 01:27:11;;;;;;;8.87;3.80;;;;;;;8.37;100.00;100855.16;699683;28;1205;-62
2023/03/21 01:27:32;;;;;;;7.38;3.72;;;;;;;8.37;100.00;100849.97;694234;28;1054;-62
2023/03/21 01:27:53;;;;;;;7.67;3.70;;;;;;;8.45;100.00;100855.28;692860;28;4339;-62
2023/03/21 01:28:15;;;;;;;6.70;3.55;;;;;;;8.49;100.00;100855.28;694915;28;974;-62
2023/03/21 01:28:37;;;;;;;7.80;3.70;;;;;;;8.48;100.00;100858.75;690628;28;1474;-62
2023/03/21 01:28:58;;;;;;;7.65;3.60;;;;;;;8.46;100.00;100854.38;691764;28;846;-62
2023/03/21 01:29:19;;;;;;;10.20;3.90;;;;;;;8.43;100.00;100851.75;693370;28;1052;-63
2023/03/21 01:29:39;;;;;;;8.40;3.50;;;;;;;8.42;100.00;100853.47;689811;28;1264;-63
2023/03/21 01:29:59;;;;;;;7.00;3.53;;;;;;;8.51;100.00;100850.09;690262;28;1287;-62
2023/03/21 01:30:20;;;;;;;7.03;3.70;;;;;;;8.52;100.00;100857.91;686792;28;1228;-62
2023/03/21 01:30:48;;;;;;;7.65;3.80;;;;;;;8.49;100.00;100855.28;692611;28;4539;-63
2023/03/21 01:31:11;;;;;;;8.85;4.00;;;;;;;8.47;100.00;100854.44;692097;28;1877;-63
2023/03/21 01:31:32;;;;;;;7.78;3.42;;;;;;;8.44;100.00;100853.50;694057;28;1585;-62
2023/03/21 01:31:52;;;;;;;6.95;3.50;;;;;;;8.42;100.00;100850.88;693858;28;935;-63
2023/03/21 01:32:13;;;;;;;7.13;3.50;;;;;;;8.43;100.00;100850.03;693611;28;1210;-62
2023/03/21 01:32:33;;;;;;;6.60;3.60;;;;;;;8.41;100.00;100846.53;695092;28;1183;-62
2023/03/21 01:32:54;;;;;;;8.13;3.83;;;;;;;8.45;100.00;100853.53;696117;28;1117;-63
2023/03/21 01:33:16;;;;;;;7.05;3.63;;;;;;;8.42;100.00;100853.47;697944;28;900;-62
2023/03/21 01:33:38;;;;;;;7.43;3.70;;;;;;;8.43;100.00;100850.03;694892;28;4415;-62
2023/03/21 01:33:58;;;;;;;8.75;3.75;;;;;;;8.43;100.00;100862.16;692420;28;1275;-63
2023/03/21 01:34:19;;;;;;;9.15;3.88;;;;;;;8.41;100.00;100854.34;692472;28;1295;-62
2023/03/21 01:34:39;;;;;;;8.43;3.90;;;;;;;8.38;100.00;100856.94;692113;28;1016;-62
2023/03/21 01:34:59;;;;;;;7.72;3.88;;;;;;;8.38;100.00;100854.31;690048;28;1245;-62
2023/03/21 01:35:20;;;;;;;7.30;3.60;;;;;;;8.36;100.00;100853.41;687634;28;921;-62
2023/03/21 01:35:41;;;;;;;7.17;3.50;;;;;;;8.35;100.00;100857.78;690127;28;1264;-62
2023/03/21 01:36:02;;;;;;;7.80;3.88;;;;;;;8.44;100.00;100851.75;687923;28;1404;-62
2023/03/21 01:36:25;;;;;;;7.38;3.65;;;;;;;8.51;100.00;100853.59;691333;28;1679;-63
2023/03/21 01:36:49;;;;;;;7.53;3.60;;;;;;;8.49;100.00;100859.66;691826;28;4558;-62
2023/03/21 01:37:13;;;;;;;6.57;3.65;;;;;;;8.50;100.00;100850.94;693351;28;1238;-62
2023/03/21 01:37:39;;;;;;;7.45;3.42;;;;;;;8.48;100.00;100853.53;691363;28;1726;-64
2023/03/21 01:38:00;;;;;;;7.37;3.50;;;;;;;8.46;100.00;100860.50;692720;28;1311;-62
2023/03/21 01:38:21;;;;;;;8.23;3.70;;;;;;;8.41;100.00;100851.72;689893;28;1236;-62
2023/03/21 01:38:43;;;;;;;7.72;3.80;;;;;;;8.40;100.00;100855.19;687941;28;1324;-64
2023/03/21 01:39:05;;;;;;;7.43;3.70;;;;;;;8.41;100.00;100854.34;692810;28;1741;-63
2023/03/21 01:39:26;;;;;;;6.55;3.30;;;;;;;8.41;100.00;100850.88;694348;28;994;-62
2023/03/21 01:39:46;;;;;;;8.48;3.45;;;;;;;8.38;100.00;100853.44;693423;28;4285;-62
2023/03/21 01:40:11;;;;;;;8.32;3.97;;;;;;;8.35;100.00;100857.78;692220;28;1215;-62
2023/03/21 01:40:33;;;;;;;8.05;4.07;;;;;;;8.46;100.00;100854.38;692506;28;1939;-63
2023/03/21 01:41:18;;;;;;;7.10;3.70;;;;;;;8.48;100.00;100855.28;689297;28;1792;-63
2023/03/21 01:41:41;;;;;;;7.50;3.60;;;;;;;8.45;100.00;100855.28;688693;28;1971;-63
2023/03/21 01:42:12;;;;;;;8.93;3.83;;;;;;;8.42;100.00;100853.47;689701;28;1362;-62
2023/03/21 01:42:32;;;;;;;9.60;4.03;;;;;;;8.40;100.00;100857.78;687701;28;1687;-63
2023/03/21 01:42:53;;;;;;;7.95;3.72;;;;;;;8.40;100.00;100852.59;689517;28;4497;-63
2023/03/21 01:43:33;;;;;;;7.55;3.60;;;;;;;8.42;100.00;100848.28;690705;28;1480;-63
2023/03/21 01:43:56;;;;;;;8.35;3.47;;;;;;;8.44;100.00;100849.13;691493;28;1575;-63
2023/03/21 01:44:22;;;;;;;8.13;3.47;;;;;;;8.46;100.00;100849.19;694021;28;1326;-63
2023/03/21 01:45:02;;;;;;;6.47;3.40;;;;;;;8.59;100.00;100853.63;693418;28;1389;-63